Brewood, United Kingdom
Current Conditions -  °F | °C
As of 11:50 PM on Friday 24 Oct 2014 (Local Time) from EGOS Reporting Station
Scattered Clouds Scattered Clouds  
Wind Chill: 46°   Ceiling: Unl
Heat Index: 46°   Visibility: 6mi
Dew Point: 45°   Wind: 2mph
Humidity: 93%   Direction: 210°SSW
Pressure: 29.94"   Gusts: NA
Location:  52.68°N, 2.17°W
Report Text: EGOS 242250Z AUTO 21002KT 9999 SCT050/// 08/07 Q1014
Loading
Personal Weather Stations






























Interactive Weather Map
Tropical Storm Tracking
New forecast layout! Learn more

10-Day Weather Forecast

Advertisements
Track Severe Weather on mobile